Time;durP1;ratioP1;P1;durP2;ratioP2;P2;SDS_P1;SDS_P2;PMS_P1;PMS_P2;Temp;Humidity;BMP_temperature;BMP_pressure;BME280_temperature;BME280_humidity;BME280_pressure;Samples;Min_cycle;Max_cycle;Signal;HPM_P1;HPM_P2
2022/11/30 00:01:29;;;;;;;;;;;9.30;68.90;;;4.56;100.00;95631.44;4992152;28;19909;-50
2022/11/30 00:03:56;;;;;;;;;;;9.30;68.90;;;4.55;100.00;95626.41;5005379;28;20434;-54
2022/11/30 00:06:25;;;;;;;;;;;9.30;68.90;;;4.53;100.00;95629.25;4959389;28;19963;-49
2022/11/30 00:08:58;;;;;;;;;;;9.30;68.90;;;4.55;100.00;95629.84;5010408;28;19909;-49
2022/11/30 00:11:27;;;;;;;;;;;9.30;68.90;;;4.58;100.00;95623.31;4980708;28;19913;-49
2022/11/30 00:13:53;;;;;;;;;;;9.30;69.00;;;4.56;100.00;95623.53;4961237;28;19931;-49
2022/11/30 00:16:20;;;;;;;;;;;9.30;69.00;;;4.59;100.00;95630.19;5001520;28;19913;-49
2022/11/30 00:18:46;;;;;;;;;;;9.30;69.00;;;4.55;100.00;95624.56;4975504;28;19945;-53
2022/11/30 00:21:14;;;;;;;;;;;9.30;69.00;;;4.54;100.00;95622.94;5004748;28;20246;-49
2022/11/30 00:23:43;;;;;;;;;;;9.30;69.10;;;4.55;100.00;95629.03;4994986;28;19913;-55
2022/11/30 00:26:21;;;;;;;;;;;9.20;69.00;;;4.55;100.00;95629.03;4993910;28;20004;-49
2022/11/30 00:28:48;;;;;;;;;;;9.30;69.10;;;4.55;100.00;95621.13;4995078;28;20283;-49
2022/11/30 00:31:17;;;;;;;;;;;9.20;69.00;;;4.52;100.00;95618.94;4993529;28;20398;-49
2022/11/30 00:33:43;;;;;;;;;;;9.20;69.00;;;4.52;100.00;95627.66;4980034;28;19956;-49
2022/11/30 00:36:21;;;;;;;;;;;9.20;69.10;;;4.50;100.00;95616.50;4992535;28;19909;-49
2022/11/30 00:38:49;;;;;;;;;;;9.20;69.10;;;4.50;100.00;95620.97;4984086;28;19913;-49
2022/11/30 00:41:17;;;;;;;;;;;9.20;69.10;;;4.49;100.00;95622.03;5012172;28;19916;-49
2022/11/30 00:43:44;;;;;;;;;;;9.20;69.90;;;4.52;100.00;95626.84;5011398;28;19990;-49
2022/11/30 00:46:10;;;;;;;;;;;9.20;69.10;;;4.50;100.00;95615.72;5003739;28;20323;-50
2022/11/30 00:48:37;;;;;;;;;;;9.20;69.10;;;4.48;100.00;95617.75;4992268;28;20319;-49
2022/11/30 00:51:05;;;;;;;;;;;9.20;69.10;;;4.49;100.00;95624.66;4986068;28;20276;-54
2022/11/30 00:53:34;;;;;;;;;;;9.20;69.20;;;4.49;100.00;95629.94;4994629;28;19916;-49
2022/11/30 00:55:59;;;;;;;;;;;9.20;69.20;;;4.50;100.00;95623.63;4992982;28;20004;-49
2022/11/30 00:58:27;;;;;;;;;;;9.20;69.20;;;4.50;100.00;95621.78;5009037;28;20398;-49
2022/11/30 01:01:02;;;;;;;;;;;9.20;69.20;;;4.53;100.00;95625.81;4975003;28;20323;-49
2022/11/30 01:03:31;;;;;;;;;;;9.20;69.20;;;4.55;100.00;95623.75;5004865;28;19920;-49
2022/11/30 01:06:10;;;;;;;;;;;9.20;69.30;;;4.56;100.00;95622.72;4984040;28;20364;-49
2022/11/30 01:08:39;;;;;;;;;;;9.20;69.30;;;4.55;100.00;95629.03;4983325;28;19934;-50
2022/11/30 01:11:20;;;;;;;;;;;9.20;69.20;;;4.55;100.00;95632.47;5010361;28;19916;-49
2022/11/30 01:13:52;;;;;;;;;;;9.20;69.30;;;4.56;100.00;95628.00;4989027;28;20375;-51
2022/11/30 01:16:23;;;;;;;;;;;9.20;69.30;;;4.51;100.00;95620.78;5001157;28;19909;-51
2022/11/30 01:18:49;;;;;;;;;;;9.20;69.20;;;4.49;100.00;95620.19;4990386;28;20078;-50
2022/11/30 01:21:23;;;;;;;;;;;9.20;69.20;;;4.46;100.00;95623.28;5001537;28;19924;-49
2022/11/30 01:23:52;;;;;;;;;;;9.20;69.20;;;4.46;100.00;95622.47;5005784;28;20127;-49
2022/11/30 01:26:18;;;;;;;;;;;9.20;69.20;;;4.47;100.00;95634.63;5006792;28;20333;-56
2022/11/30 01:28:55;;;;;;;;;;;9.20;69.20;;;4.49;100.00;95633.38;4991818;28;19909;-49
2022/11/30 01:31:24;;;;;;;;;;;9.20;69.20;;;4.49;100.00;95628.09;4990323;28;19932;-49
2022/11/30 01:33:53;;;;;;;;;;;9.20;69.30;;;4.48;100.00;95636.22;4995761;28;19916;-49
2022/11/30 01:36:25;;;;;;;;;;;9.20;69.30;;;4.48;100.00;95638.84;4957742;28;19932;-49
2022/11/30 01:39:05;;;;;;;;;;;9.20;69.30;;;4.50;100.00;95636.81;4983315;28;19939;-49
2022/11/30 01:41:32;;;;;;;;;;;9.20;69.30;;;4.50;100.00;95636.81;4994195;28;20007;-49
2022/11/30 01:44:17;;;;;;;;;;;9.20;69.30;;;4.51;100.00;95641.88;4980331;28;19966;-50
2022/11/30 01:47:08;;;;;;;;;;;9.20;69.30;;;4.49;100.00;95636.00;5010615;28;19909;-49
2022/11/30 01:49:46;;;;;;;;;;;9.20;69.30;;;4.50;100.00;95644.72;5009714;28;20271;-56
2022/11/30 01:52:47;;;;;;;;;;;9.20;69.30;;;4.52;100.00;95642.69;5009741;28;19916;-49
2022/11/30 01:55:41;;;;;;;;;;;9.20;69.40;;;4.50;100.00;95642.88;5000794;28;19909;-49
2022/11/30 01:58:14;;;;;;;;;;;9.20;69.30;;;4.51;100.00;95641.03;5001678;28;20392;-49
2022/11/30 02:00:47;;;;;;;;;;;9.20;69.30;;;4.52;100.00;95640.03;5009324;28;19952;-49
2022/11/30 02:04:00;;;;;;;;;;;9.20;69.30;;;4.51;100.00;95641.03;5008051;28;19959;-49
2022/11/30 02:06:35;;;;;;;;;;;9.30;69.40;;;4.49;100.00;95637.84;4965709;28;19984;-49
2022/11/30 02:09:04;;;;;;;;;;;9.30;69.30;;;4.48;100.00;95638.84;5000472;28;20015;-50
2022/11/30 02:11:36;;;;;;;;;;;9.30;69.30;;;4.48;100.00;95637.06;4993573;28;19952;-49
2022/11/30 02:14:36;;;;;;;;;;;9.30;69.30;;;4.45;100.00;95644.59;5008962;28;19916;-49
2022/11/30 02:17:27;;;;;;;;;;;9.30;69.20;;;4.45;100.00;95644.59;4994448;28;20027;-49
2022/11/30 02:20:36;;;;;;;;;;;9.30;69.30;;;4.48;100.00;95639.69;4976091;28;19913;-49
2022/11/30 02:23:23;;;;;;;;;;;9.30;69.20;;;4.48;100.00;95641.50;4978284;28;19971;-49
2022/11/30 02:26:12;;;;;;;;;;;9.30;69.20;;;4.46;100.00;95633.81;4991228;28;20351;-49
2022/11/30 02:29:14;;;;;;;;;;;9.40;69.30;;;4.48;100.00;95642.31;5009523;28;19940;-49
2022/11/30 02:32:17;;;;;;;;;;;9.40;69.30;;;4.44;100.00;95641.13;5012538;28;19931;-54
2022/11/30 02:34:47;;;;;;;;;;;9.40;69.30;;;4.46;100.00;95646.22;4994912;28;19910;-49
2022/11/30 02:37:15;;;;;;;;;;;9.40;69.30;;;4.48;100.00;95646.78;4977289;28;19952;-51
2022/11/30 02:39:50;;;;;;;;;;;9.40;69.20;;;4.47;100.00;95645.16;4985785;28;19917;-49
2022/11/30 02:42:16;;;;;;;;;;;9.40;69.20;;;4.48;100.00;95650.25;4977222;28;19909;-53
2022/11/30 02:44:48;;;;;;;;;;;9.40;69.20;;;4.48;100.00;95646.78;4985560;28;19909;-49
2022/11/30 02:47:38;;;;;;;;;;;9.40;69.10;;;4.48;100.00;95644.13;4980239;28;19909;-57
2022/11/30 02:50:14;;;;;;;;;;;9.40;69.20;;;4.49;100.00;95641.28;5012546;28;20006;-54
2022/11/30 02:52:41;;;;;;;;;;;9.40;69.10;;;4.47;100.00;95642.53;4996827;28;20339;-49
2022/11/30 02:55:13;;;;;;;;;;;9.40;69.10;;;4.47;100.00;95647.81;4996443;28;20019;-49
2022/11/30 02:57:39;;;;;;;;;;;9.40;69.10;;;4.47;100.00;95639.91;5013362;28;19920;-53
2022/11/30 03:00:11;;;;;;;;;;;9.40;69.10;;;4.47;100.00;95645.97;5013717;28;20284;-49
2022/11/30 03:02:40;;;;;;;;;;;9.40;69.10;;;4.48;100.00;95650.25;4996179;28;20353;-49
2022/11/30 03:05:06;;;;;;;;;;;9.40;69.10;;;4.46;100.00;95643.56;4982768;28;20311;-50
2022/11/30 03:07:32;;;;;;;;;;;9.40;69.20;;;4.45;100.00;95645.41;4993056;28;20392;-49
2022/11/30 03:10:01;;;;;;;;;;;9.30;69.10;;;4.46;100.00;95646.22;4993651;28;20019;-49
2022/11/30 03:12:27;;;;;;;;;;;9.30;69.20;;;4.47;100.00;95648.59;5012627;28;19924;-49
2022/11/30 03:14:53;;;;;;;;;;;9.30;70.00;;;4.44;100.00;95649.06;5011649;28;19990;-49
2022/11/30 03:17:19;;;;;;;;;;;9.30;69.20;;;4.44;100.00;95643.78;5003439;28;19910;-49
2022/11/30 03:19:45;;;;;;;;;;;9.30;69.10;;;4.44;100.00;95643.78;4993781;28;19921;-53
2022/11/30 03:22:18;;;;;;;;;;;9.30;69.20;;;4.41;100.00;95647.66;5003644;28;19917;-49
2022/11/30 03:24:49;;;;;;;;;;;9.30;69.20;;;4.40;100.00;95650.53;4995917;28;19919;-49
2022/11/30 03:27:15;;;;;;;;;;;9.30;69.20;;;4.41;100.00;95655.56;5000181;28;19920;-50
2022/11/30 03:29:43;;;;;;;;;;;9.30;69.30;;;4.44;100.00;95658.81;4976121;28;20275;-49
2022/11/30 03:32:09;;;;;;;;;;;9.30;69.30;;;4.41;100.00;95649.50;4979958;28;19948;-49
2022/11/30 03:34:37;;;;;;;;;;;9.30;69.30;;;4.43;100.00;95649.28;4979335;28;19940;-49
2022/11/30 03:37:03;;;;;;;;;;;9.20;69.30;;;4.43;100.00;95655.38;5013113;28;19909;-52
2022/11/30 03:39:29;;;;;;;;;;;9.20;69.20;;;4.43;100.00;95646.66;4997607;28;19921;-49
2022/11/30 03:41:55;;;;;;;;;;;9.20;69.30;;;4.43;100.00;95652.72;4993230;28;20376;-49
2022/11/30 03:44:21;;;;;;;;;;;9.20;69.30;;;4.41;100.00;95652.94;4979862;28;20025;-49
2022/11/30 03:46:47;;;;;;;;;;;9.30;69.40;;;4.40;100.00;95656.63;4978296;28;19913;-50
2022/11/30 03:49:16;;;;;;;;;;;9.30;69.50;;;4.41;100.00;95652.94;5011517;28;19936;-49
2022/11/30 03:51:42;;;;;;;;;;;9.20;69.30;;;4.44;100.00;95653.53;5012173;28;19909;-55
2022/11/30 03:54:07;;;;;;;;;;;9.30;69.40;;;4.45;100.00;95655.13;5010757;28;19970;-50
2022/11/30 03:56:33;;;;;;;;;;;9.30;69.40;;;4.44;100.00;95651.69;5011319;28;20011;-51
2022/11/30 03:58:59;;;;;;;;;;;9.30;69.40;;;4.45;100.00;95649.84;4976280;28;19919;-49
2022/11/30 04:01:25;;;;;;;;;;;9.30;69.30;;;4.44;100.00;95653.53;4991669;28;19909;-49
2022/11/30 04:03:51;;;;;;;;;;;9.30;69.30;;;4.45;100.00;95652.50;5011283;28;19909;-49
2022/11/30 04:06:19;;;;;;;;;;;9.30;69.30;;;4.44;100.00;95650.91;4994718;28;20058;-52
2022/11/30 04:08:46;;;;;;;;;;;9.30;69.30;;;4.45;100.00;95650.69;5011747;28;19917;-49
2022/11/30 04:11:24;;;;;;;;;;;9.30;69.30;;;4.47;100.00;95663.63;5011333;28;20279;-50
2022/11/30 04:13:50;;;;;;;;;;;9.30;69.40;;;4.46;100.00;95648.84;4991837;28;19959;-51
2022/11/30 04:16:18;;;;;;;;;;;9.30;69.30;;;4.44;100.00;95643.78;5002258;28;19909;-49
2022/11/30 04:18:47;;;;;;;;;;;9.30;69.40;;;4.42;100.00;95648.50;5012513;28;20268;-49
2022/11/30 04:21:16;;;;;;;;;;;9.30;69.40;;;4.42;100.00;95653.78;5024219;23;19925;-51
2022/11/30 04:23:41;;;;;;;;;;;9.20;69.40;;;4.43;100.00;95646.66;5011733;28;19952;-49
2022/11/30 04:26:15;;;;;;;;;;;9.20;69.40;;;4.43;100.00;95651.94;4991320;28;20356;-51
2022/11/30 04:28:42;;;;;;;;;;;9.20;69.50;;;4.43;100.00;95651.94;5012173;28;19909;-50
2022/11/30 04:31:19;;;;;;;;;;;9.20;69.50;;;4.41;100.00;95652.13;5022841;28;20259;-52
2022/11/30 04:33:53;;;;;;;;;;;9.20;69.50;;;4.40;100.00;95650.53;5024878;28;19977;-51
2022/11/30 04:36:20;;;;;;;;;;;9.20;70.30;;;4.41;100.00;95649.50;5027578;28;19944;-50
2022/11/30 04:38:46;;;;;;;;;;;9.10;69.50;;;4.40;100.00;95650.53;5009897;28;19924;-50
2022/11/30 04:41:12;;;;;;;;;;;9.10;69.50;;;4.39;100.00;95648.94;5010703;28;19963;-50
2022/11/30 04:43:38;;;;;;;;;;;9.10;69.50;;;4.40;100.00;95653.19;5003908;28;19974;-50
2022/11/30 04:46:05;;;;;;;;;;;9.10;70.40;;;4.38;100.00;95644.69;5030015;28;20367;-50
2022/11/30 04:48:31;;;;;;;;;;;9.10;69.60;;;4.38;100.00;95649.94;5014388;28;20007;-51
2022/11/30 04:51:06;;;;;;;;;;;9.10;69.60;;;4.38;100.00;95649.94;5006170;28;19916;-52
2022/11/30 04:53:38;;;;;;;;;;;9.10;69.70;;;4.36;100.00;95650.19;5008591;28;20000;-51
2022/11/30 04:56:09;;;;;;;;;;;9.10;69.70;;;4.35;100.00;95645.13;5029523;28;19959;-53
2022/11/30 04:58:37;;;;;;;;;;;9.10;69.70;;;4.37;100.00;95649.16;5028388;28;20367;-51
2022/11/30 05:01:03;;;;;;;;;;;9.10;69.80;;;4.39;100.00;95648.94;5027541;28;19909;-49
2022/11/30 05:03:32;;;;;;;;;;;9.10;69.80;;;4.39;100.00;95649.75;4996346;28;19909;-50
2022/11/30 05:06:02;;;;;;;;;;;9.10;69.80;;;4.37;100.00;95641.25;5027656;28;19915;-50
2022/11/30 05:08:28;;;;;;;;;;;9.10;69.80;;;4.38;100.00;95652.59;5008858;28;19913;-49
2022/11/30 05:10:54;;;;;;;;;;;9.10;69.80;;;4.41;100.00;95645.03;5003916;28;20337;-49
2022/11/30 05:13:35;;;;;;;;;;;9.10;69.80;;;4.41;100.00;95649.50;5012294;28;20011;-50
2022/11/30 05:16:04;;;;;;;;;;;9.10;69.80;;;4.43;100.00;95647.47;5022347;28;19909;-51
2022/11/30 05:18:30;;;;;;;;;;;9.10;69.80;;;4.43;100.00;95644.81;5031016;28;19913;-50
2022/11/30 05:21:00;;;;;;;;;;;9.20;69.90;;;4.44;100.00;95646.41;5029764;28;19917;-49
2022/11/30 05:23:28;;;;;;;;;;;9.20;69.90;;;4.44;100.00;95654.31;4997331;28;19939;-49
2022/11/30 05:26:04;;;;;;;;;;;9.20;69.90;;;4.44;100.00;95651.69;5011303;28;19913;-53
2022/11/30 05:28:30;;;;;;;;;;;9.20;69.80;;;4.45;100.00;95655.13;5005175;28;20268;-53
2022/11/30 05:31:03;;;;;;;;;;;9.20;69.80;;;4.43;100.00;95655.38;5006455;28;19913;-51
2022/11/30 05:33:33;;;;;;;;;;;9.20;69.80;;;4.38;100.00;95658.66;4997863;28;19939;-49
2022/11/30 05:36:02;;;;;;;;;;;9.20;69.80;;;4.41;100.00;95652.13;4992999;28;20007;-50
2022/11/30 05:38:30;;;;;;;;;;;9.10;69.80;;;4.43;100.00;95654.56;5006693;28;20360;-49
2022/11/30 05:41:01;;;;;;;;;;;9.20;69.90;;;4.43;100.00;95649.28;5025607;28;19986;-49
2022/11/30 05:43:27;;;;;;;;;;;9.20;69.80;;;4.44;100.00;95649.06;5013006;28;20007;-51
2022/11/30 05:46:02;;;;;;;;;;;9.20;69.90;;;4.45;100.00;95653.31;4975857;28;19912;-52
2022/11/30 05:48:29;;;;;;;;;;;9.20;69.90;;;4.43;100.00;95650.09;4980534;28;20325;-52
2022/11/30 05:51:03;;;;;;;;;;;9.20;69.90;;;4.41;100.00;95660.06;5026255;28;20019;-57
2022/11/30 05:53:28;;;;;;;;;;;9.20;69.80;;;4.40;100.00;95655.81;5009617;28;19952;-52
2022/11/30 05:55:54;;;;;;;;;;;9.10;69.80;;;4.41;100.00;95657.41;5007769;28;19967;-50
2022/11/30 05:58:20;;;;;;;;;;;9.20;69.90;;;4.41;100.00;95652.94;5020664;28;20404;-50
2022/11/30 06:00:45;;;;;;;;;;;9.10;69.90;;;4.37;100.00;95653.63;5012464;28;20294;-50
2022/11/30 06:03:11;;;;;;;;;;;9.20;69.80;;;4.36;100.00;95655.47;5026163;28;19908;-50
2022/11/30 06:05:37;;;;;;;;;;;9.10;69.80;;;4.34;100.00;95648.78;5011401;28;19908;-52
2022/11/30 06:08:06;;;;;;;;;;;9.10;69.80;;;4.32;100.00;95649.00;5009900;28;19916;-49
2022/11/30 06:10:35;;;;;;;;;;;9.10;69.80;;;4.32;100.00;95646.38;5030258;28;20007;-50
2022/11/30 06:13:08;;;;;;;;;;;9.10;69.80;;;4.32;100.00;95650.84;5012820;28;19909;-50
2022/11/30 06:15:37;;;;;;;;;;;9.10;69.80;;;4.31;100.00;95650.03;4994352;28;19940;-53
2022/11/30 06:18:04;;;;;;;;;;;9.10;69.90;;;4.30;100.00;95653.72;5022196;28;19909;-50
2022/11/30 06:20:29;;;;;;;;;;;9.00;69.80;;;4.32;100.00;95654.28;5003111;28;19912;-49
2022/11/30 06:22:58;;;;;;;;;;;9.10;69.90;;;4.33;100.00;95650.63;4994873;28;20382;-52
2022/11/30 06:25:25;;;;;;;;;;;9.10;69.90;;;4.32;100.00;95653.47;4994406;28;19920;-53
2022/11/30 06:27:52;;;;;;;;;;;9.10;69.90;;;4.33;100.00;95655.09;5011416;28;19915;-50
2022/11/30 06:30:18;;;;;;;;;;;9.10;69.90;;;4.34;100.00;95654.06;5015810;28;19909;-55
2022/11/30 06:32:46;;;;;;;;;;;9.10;69.90;;;4.34;100.00;95654.06;5008115;28;20019;-55
2022/11/30 06:35:13;;;;;;;;;;;9.10;70.00;;;4.33;100.00;95655.91;5011631;28;19909;-50
2022/11/30 06:37:39;;;;;;;;;;;9.10;69.90;;;4.27;100.00;95659.44;5028741;28;19934;-54
2022/11/30 06:40:06;;;;;;;;;;;9.10;69.90;;;4.30;100.00;95661.63;5001937;28;19917;-54
2022/11/30 06:42:35;;;;;;;;;;;9.10;69.90;;;4.30;100.00;95659.00;5028531;28;20267;-55
2022/11/30 06:45:19;;;;;;;;;;;9.10;70.00;;;4.26;100.00;95662.28;5028046;28;20167;-55
2022/11/30 06:47:45;;;;;;;;;;;9.00;69.90;;;4.22;100.00;95654.00;5011791;28;19944;-54
2022/11/30 06:50:13;;;;;;;;;;;9.00;69.90;;;4.21;100.00;95664.78;5010142;28;19956;-51
2022/11/30 06:52:45;;;;;;;;;;;9.00;69.90;;;4.13;100.00;95653.50;4987014;28;19916;-51
2022/11/30 06:55:11;;;;;;;;;;;9.00;70.00;;;4.10;100.00;95658.41;5018409;28;20401;-54
2022/11/30 06:57:40;;;;;;;;;;;9.00;69.90;;;4.10;100.00;95672.41;4981731;28;19913;-51
2022/11/30 07:00:07;;;;;;;;;;;9.00;70.00;;;4.07;100.00;95667.56;5019978;28;19917;-51
2022/11/30 07:02:33;;;;;;;;;;;9.00;70.00;;;4.07;100.00;95662.31;4951900;28;25009;-50
2022/11/30 07:04:59;;;;;;;;;;;8.90;70.00;;;4.07;100.00;95664.13;4994179;28;20347;-51
2022/11/30 07:07:28;;;;;;;;;;;8.90;70.00;;;4.07;100.00;95670.22;5028029;28;20011;-51
2022/11/30 07:09:54;;;;;;;;;;;8.90;70.00;;;4.10;100.00;95667.13;5014715;28;20605;-52
2022/11/30 07:12:19;;;;;;;;;;;8.90;70.00;;;4.05;100.00;95674.91;5010788;28;20005;-53
2022/11/30 07:14:45;;;;;;;;;;;8.90;70.10;;;4.05;100.00;95671.47;5024809;28;19929;-51
2022/11/30 07:17:11;;;;;;;;;;;8.90;70.10;;;4.04;100.00;95667.22;5024212;28;19909;-49
2022/11/30 07:19:36;;;;;;;;;;;8.90;70.10;;;4.03;100.00;95666.41;5012103;28;19916;-50
2022/11/30 07:22:03;;;;;;;;;;;8.90;70.10;;;4.02;100.00;95672.72;5031452;28;19924;-49
2022/11/30 07:27:15;;;;;;;;;;;8.90;70.10;;;4.09;100.00;95675.28;5030403;28;19962;-50
2022/11/30 07:29:41;;;;;;;;;;;8.90;70.20;;;4.10;100.00;95676.88;5032914;28;19916;-47
2022/11/30 07:32:07;;;;;;;;;;;8.90;70.20;;;4.11;100.00;95671.41;5011151;28;19913;-47
2022/11/30 07:34:32;;;;;;;;;;;8.90;70.10;;;4.12;100.00;95675.63;5012135;28;19912;-48
2022/11/30 07:36:58;;;;;;;;;;;8.90;70.20;;;4.15;100.00;95677.03;5012888;28;20003;-49
2022/11/30 07:39:30;;;;;;;;;;;8.90;70.10;;;4.12;100.00;95675.63;5018296;28;19916;-47
2022/11/30 07:41:56;;;;;;;;;;;8.90;70.10;;;4.13;100.00;95673.78;5033123;28;19970;-49
2022/11/30 07:44:22;;;;;;;;;;;8.90;70.10;;;4.12;100.00;95675.63;5031652;28;19908;-47
2022/11/30 07:46:47;;;;;;;;;;;9.00;70.10;;;4.00;100.00;95679.22;5002711;28;19909;-49
2022/11/30 07:49:13;;;;;;;;;;;8.90;70.80;;;4.10;100.00;95677.69;5050080;28;20429;-50
2022/11/30 07:51:42;;;;;;;;;;;8.90;70.10;;;4.07;100.00;95678.13;5035656;28;20306;-48
2022/11/30 07:54:08;;;;;;;;;;;8.90;70.00;;;4.10;100.00;95682.94;5015213;28;19915;-47
2022/11/30 07:56:34;;;;;;;;;;;8.90;70.00;;;4.06;100.00;95681.78;5031014;28;19908;-54
2022/11/30 07:59:02;;;;;;;;;;;8.90;70.00;;;4.03;100.00;95678.78;5033048;28;20271;-52
2022/11/30 08:01:33;;;;;;;;;;;8.90;70.00;;;4.02;100.00;95682.47;5014891;28;20363;-49
2022/11/30 08:03:59;;;;;;;;;;;8.90;70.00;;;3.93;100.00;95688.03;5013471;28;19909;-48
2022/11/30 08:06:28;;;;;;;;;;;8.90;70.00;;;3.88;100.00;95687.06;5014690;28;19917;-50
2022/11/30 08:08:59;;;;;;;;;;;8.90;70.70;;;3.86;100.00;95687.28;5007034;28;20321;-49
2022/11/30 08:11:29;;;;;;;;;;;8.80;69.80;;;3.73;100.00;95687.44;5027633;28;20377;-53
2022/11/30 08:13:55;;;;;;;;;;;8.80;69.80;;;3.78;100.00;95684.13;5014375;28;20012;-49
2022/11/30 08:16:36;;;;;;;;;;;8.80;69.80;;;3.82;100.00;95693.22;4993327;28;19909;-48
2022/11/30 08:19:05;;;;;;;;;;;8.80;69.80;;;3.86;100.00;95692.56;5015211;28;19913;-48
2022/11/30 08:21:31;;;;;;;;;;;8.80;69.80;;;3.73;100.00;95687.44;5019690;28;19986;-48
2022/11/30 08:23:57;;;;;;;;;;;8.80;69.80;;;3.63;100.00;95701.09;5021721;28;20157;-48
2022/11/30 08:26:38;;;;;;;;;;;8.80;69.80;;;3.60;100.00;95698.88;5029729;28;19916;-49
2022/11/30 08:29:03;;;;;;;;;;;8.70;69.70;;;3.55;100.00;95700.59;5019030;28;20024;-51
2022/11/30 08:31:38;;;;;;;;;;;8.70;69.70;;;3.57;100.00;95701.97;5014145;28;20008;-48
2022/11/30 08:34:09;;;;;;;;;;;8.70;69.70;;;3.45;100.00;95696.63;5009755;28;19916;-50
2022/11/30 08:36:35;;;;;;;;;;;8.70;69.70;;;3.43;100.00;95706.56;5014257;28;19915;-48
2022/11/30 08:39:03;;;;;;;;;;;8.70;69.70;;;3.50;100.00;95711.75;5029988;28;19913;-52
2022/11/30 08:41:37;;;;;;;;;;;8.60;69.60;;;3.51;100.00;95709.94;4998160;28;19908;-48
2022/11/30 08:44:04;;;;;;;;;;;8.60;69.60;;;3.46;100.00;95713.22;5031249;28;19924;-48
2022/11/30 08:46:31;;;;;;;;;;;8.60;69.60;;;3.48;100.00;95717.25;5023456;28;19999;-51
2022/11/30 08:48:59;;;;;;;;;;;8.60;69.50;;;3.51;100.00;95721.28;5034071;28;19916;-51
2022/11/30 08:51:25;;;;;;;;;;;8.60;69.50;;;3.45;100.00;95724.78;5037189;28;20321;-47
2022/11/30 08:53:51;;;;;;;;;;;8.70;69.60;;;3.48;100.00;95721.72;5014080;28;20003;-50
2022/11/30 08:56:22;;;;;;;;;;;8.60;69.40;;;3.55;100.00;95722.47;5012634;28;20287;-48
2022/11/30 08:58:49;;;;;;;;;;;8.70;69.50;;;3.58;100.00;95723.88;5014224;28;19944;-48
2022/11/30 09:01:25;;;;;;;;;;;8.70;69.50;;;3.54;100.00;95722.66;5013849;28;19913;-47
2022/11/30 09:03:54;;;;;;;;;;;8.80;69.50;;;3.52;100.00;95728.16;4996744;28;19956;-48
2022/11/30 09:06:28;;;;;;;;;;;8.80;69.40;;;3.60;100.00;95725.22;5030971;28;19916;-48
2022/11/30 09:08:57;;;;;;;;;;;8.80;69.30;;;3.55;100.00;95732.19;5030513;28;19959;-51
2022/11/30 09:11:31;;;;;;;;;;;8.80;69.30;;;3.57;100.00;95723.03;5013721;28;19966;-51
2022/11/30 09:14:02;;;;;;;;;;;8.80;69.10;;;3.67;100.00;95730.47;5012079;28;20003;-52
2022/11/30 09:16:28;;;;;;;;;;;8.90;69.20;;;3.63;100.00;95731.91;5023298;28;19916;-53
2022/11/30 09:18:57;;;;;;;;;;;8.90;69.10;;;3.62;100.00;95725.03;5030005;28;20372;-52
2022/11/30 09:21:24;;;;;;;;;;;8.90;69.00;;;3.72;100.00;95734.03;5029576;28;19949;-47
2022/11/30 09:23:52;;;;;;;;;;;9.00;69.00;;;3.67;100.00;95730.47;4994028;28;19913;-49
2022/11/30 09:26:24;;;;;;;;;;;9.00;68.90;;;3.79;100.00;95736.63;5008763;28;19909;-51
2022/11/30 09:28:52;;;;;;;;;;;9.10;68.90;;;3.84;100.00;95726.22;5030668;28;19944;-49
2022/11/30 09:31:22;;;;;;;;;;;9.20;68.90;;;3.85;100.00;95729.66;5001569;28;20442;-53
2022/11/30 09:33:49;;;;;;;;;;;9.30;68.70;;;3.84;99.81;95733.34;5003992;28;20003;-49
2022/11/30 09:36:19;;;;;;;;;;;9.30;68.60;;;3.91;100.00;95729.59;5047485;28;19916;-50
2022/11/30 09:38:46;;;;;;;;;;;9.30;68.50;;;3.98;100.00;95728.72;5008436;28;19916;-51
2022/11/30 09:41:27;;;;;;;;;;;9.40;68.50;;;4.04;99.42;95726.03;5012834;28;20379;-48
2022/11/30 09:44:49;;;;;;;;;;;9.50;68.50;;;4.08;99.05;95734.31;5026061;28;19909;-48
2022/11/30 09:47:36;;;;;;;;;;;9.60;68.40;;;4.13;98.91;95734.44;4950289;28;19910;-52
2022/11/30 09:50:21;;;;;;;;;;;9.70;68.30;;;4.10;97.29;95732.25;5003943;28;19909;-50
2022/11/30 09:53:28;;;;;;;;;;;9.80;68.10;;;4.10;98.71;95719.84;5032669;28;19962;-49
2022/11/30 09:55:55;;;;;;;;;;;9.90;67.90;;;4.30;97.91;95718.84;5013902;28;19912;-51
2022/11/30 09:58:52;;;;;;;;;;;10.00;67.80;;;4.29;97.12;95723.28;5012835;28;19916;-48
2022/11/30 10:01:20;;;;;;;;;;;10.10;67.70;;;4.46;97.47;95723.50;5013352;28;20354;-50
2022/11/30 10:03:49;;;;;;;;;;;10.20;67.60;;;4.34;96.71;95717.38;5011719;28;19951;-48
2022/11/30 10:06:54;;;;;;;;;;;10.20;67.40;;;4.56;97.47;95730.88;5012186;28;19916;-50
2022/11/30 10:10:02;;;;;;;;;;;10.20;67.40;;;4.59;97.38;95722.53;5025426;28;20351;-57
2022/11/30 10:13:05;;;;;;;;;;;10.30;67.40;;;4.54;96.30;95728.47;4995332;28;19909;-50
2022/11/30 10:16:07;;;;;;;;;;;10.40;67.20;;;4.61;96.41;95723.13;5008263;28;19912;-51
2022/11/30 10:19:18;;;;;;;;;;;10.50;67.10;;;4.54;96.42;95714.47;5017287;28;19913;-52
2022/11/30 10:22:24;;;;;;;;;;;10.60;67.00;;;4.47;96.21;95717.19;5011880;28;20278;-54
2022/11/30 10:25:27;;;;;;;;;;;10.50;66.70;;;4.67;96.10;95713.47;5029598;28;20387;-49
2022/11/30 10:29:00;;;;;;;;;;;10.60;66.80;;;4.55;93.43;95710.81;5012313;28;19912;-55
2022/11/30 10:32:11;;;;;;;;;;;10.60;66.70;;;4.60;93.99;95718.84;4961824;28;19921;-52
2022/11/30 10:34:43;;;;;;;;;;;10.60;66.60;;;4.56;93.70;95715.06;5014890;28;19912;-54
2022/11/30 10:37:31;;;;;;;;;;;10.70;66.40;;;4.59;92.82;95714.63;5012747;28;19908;-54
2022/11/30 10:40:45;;;;;;;;;;;10.70;66.20;;;4.86;91.89;95715.88;4998473;28;20393;-54
2022/11/30 10:43:32;;;;;;;;;;;10.80;66.20;;;4.84;92.31;95717.91;5050510;28;19951;-49
2022/11/30 10:45:58;;;;;;;;;;;10.90;66.10;;;4.88;91.36;95718.25;4992211;28;19909;-51
2022/11/30 10:48:39;;;;;;;;;;;11.00;66.00;;;4.99;92.28;95706.94;5005163;28;19913;-55
2022/11/30 10:51:11;;;;;;;;;;;11.10;65.90;;;5.07;90.82;95706.59;5012202;28;19912;-52
2022/11/30 10:53:39;;;;;;;;;;;11.20;65.70;;;5.20;90.58;95708.25;5032735;28;19913;-49
2022/11/30 10:56:31;;;;;;;;;;;11.30;65.60;;;5.31;89.76;95696.09;5032376;28;19909;-51
2022/11/30 10:59:21;;;;;;;;;;;11.40;65.50;;;5.22;89.64;95695.59;5049685;28;19919;-55
2022/11/30 11:01:50;;;;;;;;;;;11.50;65.20;;;4.79;88.43;95701.94;5018081;28;19962;-55
2022/11/30 11:04:26;;;;;;;;;;;11.60;65.00;;;4.96;89.72;95699.47;4989727;28;19917;-55
2022/11/30 11:07:16;;;;;;;;;;;11.60;64.80;;;5.20;90.14;95696.88;5015972;28;19916;-50
2022/11/30 11:09:51;;;;;;;;;;;11.60;64.80;;;5.41;87.96;95688.41;5012929;28;19955;-52
2022/11/30 11:12:25;;;;;;;;;;;11.60;64.90;;;5.29;87.07;95691.03;5016498;28;19909;-53
2022/11/30 11:15:26;;;;;;;;;;;11.60;64.80;;;5.14;88.42;95688.03;4998667;28;19909;-51
2022/11/30 11:18:28;;;;;;;;;;;11.60;64.60;;;5.36;88.09;95690.94;5022329;28;20294;-53
2022/11/30 11:21:36;;;;;;;;;;;11.50;64.50;;;5.28;87.23;95696.53;5014767;28;19978;-51
2022/11/30 11:24:09;;;;;;;;;;;11.50;64.60;;;5.47;87.65;95694.59;5051158;28;19962;-53
2022/11/30 11:26:35;;;;;;;;;;;11.50;64.70;;;5.56;87.20;95695.88;5008777;28;19966;-52
2022/11/30 11:29:01;;;;;;;;;;;11.40;64.70;;;5.56;86.64;95691.38;5035812;28;19923;-54
2022/11/30 11:31:45;;;;;;;;;;;11.40;64.80;;;5.66;86.30;95690.81;5032961;28;20310;-49
2022/11/30 11:34:44;;;;;;;;;;;11.30;64.70;;;5.60;86.41;95690.94;5011458;28;20437;-52
2022/11/30 11:37:31;;;;;;;;;;;11.40;64.80;;;5.57;86.67;95695.63;5020157;28;19908;-52
2022/11/30 11:40:16;;;;;;;;;;;11.40;64.60;;;5.59;86.13;95698.06;5006713;28;19913;-51
2022/11/30 11:43:03;;;;;;;;;;;11.40;64.50;;;5.64;85.53;95700.00;5034278;28;19992;-52
2022/11/30 11:45:37;;;;;;;;;;;11.40;64.50;;;5.72;86.15;95704.94;5038318;28;19961;-54
2022/11/30 11:48:25;;;;;;;;;;;11.40;64.40;;;5.48;84.13;95706.78;5015052;28;19913;-53
2022/11/30 11:51:10;;;;;;;;;;;11.40;64.40;;;5.44;86.04;95697.69;5012842;28;19909;-53
2022/11/30 11:54:02;;;;;;;;;;;11.30;64.20;;;5.19;85.68;95692.63;5033013;28;20025;-54
2022/11/30 11:56:35;;;;;;;;;;;11.30;64.20;;;5.23;86.47;95701.69;4992937;28;19913;-52